Time;durP1;ratioP1;P1;durP2;ratioP2;P2;SDS_P1;SDS_P2;PMS_P1;PMS_P2;Temp;Humidity;BMP_temperature;BMP_pressure;BME280_temperature;BME280_humidity;BME280_pressure;Samples;Min_cycle;Max_cycle;Signal;HPM_P1;HPM_P2
2021/04/04 00:01:29;;;;;;;34.15;17.60;;;;;;;7.46;63.92;102662.22;5034016;28;20561;-45
2021/04/04 00:03:55;;;;;;;39.38;18.23;;;;;;;7.39;63.99;102658.94;5034155;28;20490;-46
2021/04/04 00:06:21;;;;;;;31.80;18.30;;;;;;;7.33;64.31;102652.59;5019699;28;20446;-47
2021/04/04 00:08:48;;;;;;;41.67;20.33;;;;;;;7.30;64.46;102644.88;5013874;28;20073;-45
2021/04/04 00:11:15;;;;;;;35.65;19.88;;;;;;;7.27;64.35;102642.66;5013970;28;20037;-44
2021/04/04 00:13:42;;;;;;;36.50;20.42;;;;;;;7.24;64.52;102643.22;5012580;28;20077;-47
2021/04/04 00:16:08;;;;;;;39.97;21.35;;;;;;;7.23;64.38;102645.13;5013941;28;20486;-47
2021/04/04 00:18:35;;;;;;;46.05;22.02;;;;;;;7.18;64.49;102647.06;5013878;28;20042;-45
2021/04/04 00:21:03;;;;;;;37.38;21.40;;;;;;;7.13;65.07;102641.56;5014179;28;20510;-47
2021/04/04 00:23:29;;;;;;;40.35;21.08;;;;;;;7.05;64.82;102650.38;5012982;28;20860;-45
2021/04/04 00:25:56;;;;;;;37.67;21.40;;;;;;;6.99;64.90;102646.00;5011622;28;20093;-46
2021/04/04 00:28:22;;;;;;;33.47;19.55;;;;;;;6.98;65.15;102649.84;5009216;28;20050;-45
2021/04/04 00:30:48;;;;;;;38.67;19.75;;;;;;;6.96;65.55;102652.03;5018968;28;20459;-47
2021/04/04 00:33:15;;;;;;;36.67;22.50;;;;;;;6.98;65.18;102644.31;5033364;28;20080;-46
2021/04/04 00:35:41;;;;;;;41.22;20.58;;;;;;;6.98;65.23;102649.84;5022011;28;20213;-46
2021/04/04 00:38:09;;;;;;;36.97;21.00;;;;;;;6.95;65.43;102645.72;5017853;28;20049;-47
2021/04/04 00:40:37;;;;;;;40.80;22.25;;;;;;;6.91;65.53;102639.06;5006348;28;20053;-50
2021/04/04 00:43:05;;;;;;;41.53;21.17;;;;;;;6.89;65.30;102641.28;5011929;28;20558;-46
2021/04/04 00:45:34;;;;;;;37.95;21.15;;;;;;;6.87;65.29;102642.66;5007422;28;20133;-47
2021/04/04 00:48:01;;;;;;;44.72;20.20;;;;;;;6.84;65.46;102648.72;5005178;28;20077;-48
2021/04/04 00:50:38;;;;;;;41.35;20.10;;;;;;;6.82;65.69;102645.41;5014181;28;20487;-52
2021/04/04 00:53:06;;;;;;;42.05;20.67;;;;;;;6.79;65.48;102640.44;5009880;28;20129;-48
2021/04/04 00:55:34;;;;;;;35.15;19.27;;;;;;;6.78;65.75;102636.88;5009316;28;20046;-46
2021/04/04 00:58:03;;;;;;;38.60;21.25;;;;;;;6.82;65.56;102642.66;5016735;28;20050;-48
2021/04/04 01:00:30;;;;;;;35.85;22.15;;;;;;;6.73;65.70;102636.88;5012491;28;20052;-48
2021/04/04 01:02:57;;;;;;;34.53;19.10;;;;;;;6.68;65.78;102634.94;5001279;28;20081;-47
2021/04/04 01:05:42;;;;;;;37.67;20.75;;;;;;;6.66;65.72;102626.13;5015982;28;20050;-47
2021/04/04 01:08:09;;;;;;;40.17;20.48;;;;;;;6.65;65.73;102626.38;5018726;28;20048;-47
2021/04/04 01:10:38;;;;;;;38.10;20.67;;;;;;;6.61;65.68;102628.06;5018925;28;20053;-45
2021/04/04 01:13:33;;;;;;;34.53;18.73;;;;;;;6.58;65.93;102623.94;5025390;28;20073;-45
2021/04/04 01:16:12;;;;;;;28.67;17.60;;;;;;;6.58;65.75;102623.94;5028594;28;20096;-48
2021/04/04 01:18:39;;;;;;;31.15;17.23;;;;;;;6.53;66.17;102623.91;5012836;28;20049;-47
2021/04/04 01:21:17;;;;;;;33.03;18.90;;;;;;;6.51;66.12;102622.53;5012528;28;20050;-45
2021/04/04 01:23:53;;;;;;;38.45;18.38;;;;;;;6.49;66.20;102622.78;5004053;28;20466;-46
2021/04/04 01:26:32;;;;;;;33.65;16.17;;;;;;;6.45;66.10;102613.44;5025034;28;20049;-45
2021/04/04 01:28:58;;;;;;;37.25;17.83;;;;;;;6.48;65.94;102623.06;5018609;28;20072;-46
2021/04/04 01:31:27;;;;;;;28.50;18.27;;;;;;;6.43;66.21;102612.06;5019204;28;20100;-46
2021/04/04 01:33:56;;;;;;;31.35;16.42;;;;;;;6.39;66.15;102609.03;5013306;28;20499;-47
2021/04/04 01:36:23;;;;;;;30.60;17.33;;;;;;;6.37;66.09;102602.97;5031349;28;20088;-48
2021/04/04 01:38:52;;;;;;;31.40;16.92;;;;;;;6.37;66.10;102602.97;5012629;28;20132;-44
2021/04/04 01:41:28;;;;;;;32.75;16.42;;;;;;;6.29;66.44;102600.75;5012682;28;20053;-46
2021/04/04 01:44:01;;;;;;;41.38;17.45;;;;;;;6.29;66.43;102597.16;5003927;28;20128;-45
2021/04/04 01:46:28;;;;;;;34.55;17.15;;;;;;;6.27;66.37;102596.63;5015720;28;20046;-47
2021/04/04 01:48:58;;;;;;;32.38;16.77;;;;;;;6.24;66.57;102584.25;5012457;28;20048;-46
2021/04/04 01:51:25;;;;;;;33.30;17.40;;;;;;;6.21;66.65;102578.44;5013867;28;20125;-49
2021/04/04 01:53:54;;;;;;;37.15;19.27;;;;;;;6.20;66.43;102579.53;5003394;28;20128;-47
2021/04/04 01:56:23;;;;;;;35.15;18.80;;;;;;;6.19;66.48;102586.16;5008904;28;20048;-45
2021/04/04 01:58:51;;;;;;;32.13;17.20;;;;;;;6.17;66.41;102594.66;4990891;28;20050;-46
2021/04/04 02:01:18;;;;;;;31.30;16.83;;;;;;;6.13;66.50;102580.63;5015180;28;20069;-48
2021/04/04 02:03:45;;;;;;;31.67;17.13;;;;;;;6.09;67.08;102586.94;5017160;28;20074;-46
2021/04/04 02:06:13;;;;;;;30.58;18.80;;;;;;;6.11;66.95;102577.34;5029491;28;20060;-47
2021/04/04 02:08:41;;;;;;;32.63;18.77;;;;;;;6.05;66.47;102567.41;5030154;28;20095;-45
2021/04/04 02:11:10;;;;;;;44.42;18.73;;;;;;;6.01;66.86;102560.78;5017757;28;20046;-45
2021/04/04 02:13:38;;;;;;;34.67;19.92;;;;;;;6.01;67.11;102565.47;5009443;28;20537;-45
2021/04/04 02:16:07;;;;;;;34.88;19.92;;;;;;;5.97;67.15;102561.59;5025593;28;20041;-49
2021/04/04 02:18:34;;;;;;;37.45;19.73;;;;;;;5.95;66.98;102569.31;5024284;28;20128;-46
2021/04/04 02:21:02;;;;;;;38.63;19.95;;;;;;;5.91;67.00;102565.44;5019036;28;20144;-47
2021/04/04 02:23:29;;;;;;;39.88;19.98;;;;;;;5.90;67.39;102561.88;5007483;28;20065;-45
2021/04/04 02:25:56;;;;;;;37.00;20.77;;;;;;;5.97;66.82;102548.69;5028300;28;20107;-47
2021/04/04 02:28:24;;;;;;;40.85;21.88;;;;;;;5.92;67.06;102556.09;5029037;28;20125;-47
2021/04/04 02:30:52;;;;;;;35.13;19.85;;;;;;;5.91;67.27;102548.94;5031410;28;20049;-44
2021/04/04 02:33:33;;;;;;;36.80;19.88;;;;;;;5.88;67.28;102550.31;5015163;28;20115;-46
2021/04/04 02:36:12;;;;;;;37.20;18.38;;;;;;;5.84;67.43;102545.59;4992184;28;20046;-44
2021/04/04 02:38:45;;;;;;;36.15;18.17;;;;;;;5.78;67.49;102541.16;5030080;28;20115;-44
2021/04/04 02:41:12;;;;;;;36.13;18.55;;;;;;;5.75;67.53;102541.69;5011437;28;20065;-44
2021/04/04 02:43:41;;;;;;;38.53;18.05;;;;;;;5.74;67.90;102534.56;5012951;28;20050;-46
2021/04/04 02:46:16;;;;;;;40.35;17.88;;;;;;;5.78;67.84;102527.41;5013184;28;20510;-45
2021/04/04 02:49:02;;;;;;;35.78;16.63;;;;;;;5.82;67.57;102531.28;4991768;28;20046;-44
2021/04/04 02:51:39;;;;;;;30.52;17.35;;;;;;;5.87;66.99;102528.59;5012862;28;20073;-46
2021/04/04 02:54:07;;;;;;;35.10;17.17;;;;;;;5.84;67.28;102540.94;5004370;28;20105;-46
2021/04/04 02:56:44;;;;;;;34.00;15.55;;;;;;;5.74;67.74;102532.66;5023867;28;20041;-46
2021/04/04 02:59:20;;;;;;;31.77;15.10;;;;;;;5.75;67.60;102531.53;5030126;28;20037;-44
2021/04/04 03:01:50;;;;;;;34.75;16.52;;;;;;;5.78;67.48;102516.44;5022203;28;20045;-46
2021/04/04 03:04:19;;;;;;;33.47;16.38;;;;;;;5.83;67.50;102521.94;5014711;28;20049;-45
2021/04/04 03:06:46;;;;;;;30.65;15.68;;;;;;;5.82;67.52;102504.66;5006019;28;20145;-44
2021/04/04 03:09:15;;;;;;;32.97;16.20;;;;;;;5.75;67.84;102509.56;5014890;28;20084;-46
2021/04/04 03:11:42;;;;;;;29.10;15.82;;;;;;;5.70;67.47;102503.22;5012014;28;20100;-46
2021/04/04 03:14:10;;;;;;;32.47;16.15;;;;;;;5.63;67.97;102508.97;5011683;28;20514;-45
2021/04/04 03:16:37;;;;;;;37.65;16.63;;;;;;;5.63;68.26;102511.72;4996800;28;20070;-48
2021/04/04 03:19:04;;;;;;;32.90;15.55;;;;;;;5.60;67.86;102505.94;5014480;28;20502;-45
2021/04/04 03:21:33;;;;;;;29.17;15.55;;;;;;;5.68;68.33;102502.66;5016313;28;20570;-46
2021/04/04 03:24:00;;;;;;;25.83;14.38;;;;;;;5.67;67.86;102501.00;5011669;28;20058;-46
2021/04/04 03:26:27;;;;;;;31.35;15.50;;;;;;;5.72;67.97;102499.09;5015000;28;20046;-45
2021/04/04 03:28:56;;;;;;;28.40;14.25;;;;;;;5.64;68.06;102476.84;5014362;28;20133;-44
2021/04/04 03:31:23;;;;;;;30.10;14.65;;;;;;;5.65;68.06;102481.22;5006778;28;20431;-47
2021/04/04 03:33:50;;;;;;;31.83;15.85;;;;;;;5.68;68.11;102477.94;5016516;28;20050;-45
2021/04/04 03:36:20;;;;;;;29.83;15.45;;;;;;;5.63;68.03;102483.41;5014947;28;20133;-48
2021/04/04 03:38:50;;;;;;;32.97;16.23;;;;;;;5.57;68.52;102487.22;5018414;28;20080;-47
2021/04/04 03:41:17;;;;;;;25.83;14.27;;;;;;;5.53;68.66;102487.75;5017472;28;20462;-47
2021/04/04 03:43:47;;;;;;;29.23;16.23;;;;;;;5.49;68.57;102486.66;5012660;28;20073;-45
2021/04/04 03:46:15;;;;;;;31.02;15.85;;;;;;;5.46;68.64;102492.69;5014611;28;20149;-46
2021/04/04 03:48:45;;;;;;;30.58;15.38;;;;;;;5.39;68.86;102491.28;5017439;28;20054;-45
2021/04/04 03:51:12;;;;;;;31.15;16.35;;;;;;;5.39;69.14;102480.31;5030230;28;20076;-47
2021/04/04 03:53:42;;;;;;;29.67;15.23;;;;;;;5.37;69.02;102482.50;5020275;28;20483;-45
2021/04/04 03:56:10;;;;;;;30.05;15.35;;;;;;;5.37;69.10;102488.81;5014440;28;20117;-46
2021/04/04 03:58:38;;;;;;;27.10;16.25;;;;;;;5.40;68.86;102484.72;5021767;28;20091;-46
2021/04/04 04:01:07;;;;;;;23.77;13.98;;;;;;;5.44;68.80;102475.66;5020119;28;20060;-46
2021/04/04 04:03:35;;;;;;;30.08;16.27;;;;;;;5.41;68.65;102476.19;5024770;28;20073;-44
2021/04/04 04:06:01;;;;;;;28.90;16.15;;;;;;;5.53;68.34;102476.78;5015978;28;20448;-47
2021/04/04 04:08:30;;;;;;;36.88;15.93;;;;;;;5.46;68.62;102478.13;5012611;28;20046;-46
2021/04/04 04:10:59;;;;;;;25.83;14.95;;;;;;;5.34;68.62;102474.78;5017619;28;20037;-45
2021/04/04 04:13:28;;;;;;;28.17;16.65;;;;;;;5.24;68.89;102472.81;5032677;28;20065;-47
2021/04/04 04:15:56;;;;;;;34.28;15.35;;;;;;;5.22;69.32;102458.53;5032931;28;20830;-46
2021/04/04 04:18:23;;;;;;;29.63;16.02;;;;;;;5.20;69.34;102459.88;5013982;28;20111;-47
2021/04/04 04:20:50;;;;;;;27.98;15.80;;;;;;;5.22;69.41;102461.28;5014137;28;20074;-48
2021/04/04 04:23:17;;;;;;;32.40;16.75;;;;;;;5.22;69.30;102466.75;5027573;28;20065;-44
2021/04/04 04:25:44;;;;;;;28.08;15.60;;;;;;;5.18;69.48;102476.66;5016828;28;20069;-46
2021/04/04 04:28:11;;;;;;;29.00;15.07;;;;;;;5.16;69.38;102473.34;5001474;28;20052;-47
2021/04/04 04:30:38;;;;;;;30.75;14.13;;;;;;;5.14;69.65;102466.44;5013389;28;20092;-46
2021/04/04 04:33:06;;;;;;;31.17;16.67;;;;;;;5.09;69.35;102460.94;5021167;28;20128;-44
2021/04/04 04:35:37;;;;;;;28.58;14.13;;;;;;;5.09;69.57;102459.00;5013466;28;20125;-45
2021/04/04 04:38:04;;;;;;;27.02;15.02;;;;;;;5.13;69.44;102456.56;5013853;28;20112;-48
2021/04/04 04:40:31;;;;;;;33.10;15.45;;;;;;;5.18;69.37;102449.19;5023654;28;20107;-47
2021/04/04 04:42:59;;;;;;;32.67;16.15;;;;;;;5.25;69.39;102443.44;5023012;28;20069;-47
2021/04/04 04:45:35;;;;;;;27.20;14.05;;;;;;;5.29;69.13;102450.88;5012974;28;20455;-44
2021/04/04 04:48:02;;;;;;;28.73;14.95;;;;;;;5.14;69.06;102453.53;5017786;28;20053;-46
2021/04/04 04:50:29;;;;;;;31.10;14.15;;;;;;;5.08;69.35;102449.16;5015122;28;20073;-44
2021/04/04 04:52:59;;;;;;;32.17;14.20;;;;;;;5.06;69.50;102432.09;5025521;28;20463;-46
2021/04/04 04:55:27;;;;;;;29.40;14.13;;;;;;;5.05;69.60;102429.63;5018930;28;20073;-46
2021/04/04 04:57:57;;;;;;;30.08;12.95;;;;;;;5.16;69.24;102434.91;5010065;28;20123;-46
2021/04/04 05:00:24;;;;;;;29.25;14.35;;;;;;;5.15;69.58;102433.25;5028315;28;20038;-45
2021/04/04 05:02:51;;;;;;;26.55;13.40;;;;;;;5.05;69.50;102427.72;5033571;28;20438;-46
2021/04/04 05:05:18;;;;;;;23.30;12.20;;;;;;;5.04;69.68;102420.56;5021553;28;20129;-44
2021/04/04 05:07:46;;;;;;;29.42;13.77;;;;;;;5.09;69.86;102420.59;5032674;28;20045;-46
2021/04/04 05:10:13;;;;;;;28.33;13.98;;;;;;;5.01;70.18;102420.25;5032000;28;20143;-46
2021/04/04 05:12:57;;;;;;;21.83;11.13;;;;;;;4.96;70.16;102422.97;5005735;28;20128;-47
2021/04/04 05:15:25;;;;;;;30.02;13.10;;;;;;;4.98;69.95;102420.81;5010233;28;20108;-47
2021/04/04 05:17:52;;;;;;;21.85;12.93;;;;;;;4.93;70.10;102419.69;5012477;28;20042;-46
2021/04/04 05:20:20;;;;;;;25.25;13.35;;;;;;;4.97;70.32;102430.97;5014084;28;20081;-47
2021/04/04 05:22:47;;;;;;;25.85;12.45;;;;;;;5.05;70.05;102413.16;5012909;28;20050;-46
2021/04/04 05:25:14;;;;;;;27.88;13.63;;;;;;;5.12;69.73;102410.97;5014270;28;20132;-47
2021/04/04 05:27:41;;;;;;;21.77;11.45;;;;;;;5.15;69.56;102404.97;5018162;28;20157;-47
2021/04/04 05:30:10;;;;;;;29.67;13.38;;;;;;;5.14;69.58;102406.03;5011218;28;20088;-45
2021/04/04 05:32:48;;;;;;;25.88;11.73;;;;;;;5.11;69.85;102390.94;5018521;28;20038;-46
2021/04/04 05:35:20;;;;;;;28.38;12.25;;;;;;;5.16;69.76;102374.50;5011575;28;20411;-47
2021/04/04 05:37:50;;;;;;;29.77;12.65;;;;;;;5.15;69.85;102378.34;5016288;28;20053;-45
2021/04/04 05:40:24;;;;;;;25.75;12.95;;;;;;;5.10;70.16;102380.25;5025656;28;20037;-49
2021/04/04 05:42:55;;;;;;;27.90;12.18;;;;;;;5.05;70.30;102378.31;5006077;28;20045;-47
2021/04/04 05:45:46;;;;;;;26.08;11.63;;;;;;;5.07;70.82;102375.28;5012507;28;20108;-48
2021/04/04 05:48:20;;;;;;;25.77;12.45;;;;;;;5.11;70.27;102371.72;4991676;28;20058;-47
2021/04/04 05:51:17;;;;;;;30.42;12.38;;;;;;;5.09;70.28;102384.91;5026620;28;20065;-46
2021/04/04 05:53:46;;;;;;;25.42;12.27;;;;;;;5.11;70.24;102384.66;4988226;28;20088;-47
2021/04/04 05:56:16;;;;;;;24.02;11.48;;;;;;;5.04;70.46;102389.53;5019762;28;20601;-45
2021/04/04 05:58:51;;;;;;;26.15;13.25;;;;;;;5.02;70.45;102381.59;5025644;28;20045;-45
2021/04/04 06:01:32;;;;;;;22.48;11.70;;;;;;;5.02;70.60;102375.25;5011398;28;20144;-45
2021/04/04 06:04:20;;;;;;;27.00;11.68;;;;;;;4.99;70.84;102375.78;4993742;28;20514;-45
2021/04/04 06:06:52;;;;;;;21.05;10.85;;;;;;;4.96;71.13;102379.91;4985576;28;20448;-45
2021/04/04 06:09:33;;;;;;;24.25;13.10;;;;;;;4.95;71.01;102382.94;5008016;28;20073;-44
2021/04/04 06:12:23;;;;;;;25.65;11.60;;;;;;;5.00;71.12;102386.53;5013634;28;20068;-47
2021/04/04 06:15:02;;;;;;;24.75;11.70;;;;;;;5.04;70.78;102386.78;5011618;28;20124;-45
2021/04/04 06:17:36;;;;;;;21.00;11.30;;;;;;;5.02;71.05;102389.81;5028994;28;20136;-46
2021/04/04 06:20:35;;;;;;;31.35;12.35;;;;;;;5.01;71.35;102379.91;4996978;28;20080;-45
2021/04/04 06:23:08;;;;;;;30.13;11.73;;;;;;;5.09;70.92;102384.91;5006991;28;20060;-50
2021/04/04 06:25:49;;;;;;;23.13;11.27;;;;;;;5.14;71.04;102379.44;5015935;28;20228;-46
2021/04/04 06:28:19;;;;;;;22.08;11.95;;;;;;;5.18;71.05;102383.28;5019797;28;20041;-51
2021/04/04 06:30:57;;;;;;;23.25;11.05;;;;;;;5.21;70.83;102371.78;5000963;28;20136;-48
2021/04/04 06:33:25;;;;;;;26.73;12.13;;;;;;;5.24;71.06;102370.41;5011922;28;20058;-46
2021/04/04 06:36:04;;;;;;;26.00;11.15;;;;;;;5.25;71.04;102366.56;5011082;28;20050;-48
2021/04/04 06:38:48;;;;;;;31.15;13.98;;;;;;;5.29;71.31;102385.00;5020652;28;20080;-44
2021/04/04 06:41:21;;;;;;;19.23;9.15;;;;;;;5.32;71.49;102389.91;5029739;28;20073;-48
2021/04/04 06:44:07;;;;;;;21.58;9.82;;;;;;;5.38;71.80;102394.34;5016957;28;20088;-45
2021/04/04 06:46:43;;;;;;;28.77;11.93;;;;;;;5.45;71.20;102389.41;5024579;28;20518;-44
2021/04/04 06:49:33;;;;;;;21.15;9.68;;;;;;;5.51;71.10;102392.97;4992027;28;20053;-46
2021/04/04 06:52:16;;;;;;;19.52;9.85;;;;;;;5.57;71.43;102391.06;5019698;28;20100;-46
2021/04/04 06:55:08;;;;;;;19.23;8.40;;;;;;;5.62;71.89;102391.09;5003671;28;20049;-46
2021/04/04 06:57:52;;;;;;;18.95;8.15;;;;;;;5.66;71.85;102382.03;5004817;28;20543;-46
2021/04/04 07:00:24;;;;;;;22.27;9.25;;;;;;;5.74;71.30;102375.19;5011357;28;20499;-46
2021/04/04 07:02:56;;;;;;;18.27;8.30;;;;;;;5.81;71.34;102375.72;5017519;28;20125;-51
2021/04/04 07:05:27;;;;;;;21.70;9.10;;;;;;;5.86;71.71;102381.25;5011262;28;20160;-44
2021/04/04 07:08:33;;;;;;;17.85;8.55;;;;;;;5.91;71.75;102381.25;5011439;28;20446;-50
2021/04/04 07:11:18;;;;;;;17.17;7.90;;;;;;;5.97;71.81;102369.19;4985202;28;20050;-45
2021/04/04 07:13:51;;;;;;;22.73;8.40;;;;;;;6.04;71.87;102369.72;5002917;28;20077;-44
2021/04/04 07:16:32;;;;;;;;;;;;;;;6.08;72.16;102368.91;5019367;28;20558;-47
2021/04/04 07:19:31;;;;;;;15.32;7.78;;;;;;;6.14;71.44;102375.22;5006936;28;20012;-47
2021/04/04 07:22:25;;;;;;;22.23;7.75;;;;;;;6.18;71.89;102358.97;4990238;28;20109;-48
2021/04/04 07:25:09;;;;;;;14.88;8.00;;;;;;;6.24;71.43;102357.88;4990556;28;20053;-48
2021/04/04 07:27:51;;;;;;;16.80;8.50;;;;;;;6.28;71.96;102364.47;5023894;28;20486;-45
2021/04/04 07:30:35;;;;;;;16.98;9.88;;;;;;;6.32;71.81;102371.91;5019411;28;20136;-45
2021/04/04 07:33:27;;;;;;;25.27;8.32;;;;;;;6.42;71.88;102374.63;5012844;28;20045;-45
2021/04/04 07:36:14;;;;;;;20.65;8.68;;;;;;;6.49;72.16;102355.91;5026454;28;20533;-47
2021/04/04 07:39:05;;;;;;;24.58;8.95;;;;;;;6.55;72.27;102352.06;5029162;28;20037;-48
2021/04/04 07:42:08;;;;;;;20.10;9.30;;;;;;;6.61;72.38;102348.19;5019077;28;20092;-48
2021/04/04 07:44:42;;;;;;;18.15;9.05;;;;;;;6.67;72.10;102365.50;5034171;28;20458;-46
2021/04/04 07:47:39;;;;;;;20.15;8.43;;;;;;;6.70;72.36;102363.00;5019358;28;20069;-46
2021/04/04 07:50:08;;;;;;;17.92;8.57;;;;;;;6.75;72.02;102360.22;4994571;28;20575;-46
2021/04/04 07:52:51;;;;;;;18.35;8.70;;;;;;;6.81;71.89;102363.78;5007681;28;20073;-46
2021/04/04 07:55:25;;;;;;;21.08;8.75;;;;;;;6.84;71.82;102362.41;5020894;28;20129;-47
2021/04/04 07:58:02;;;;;;;17.65;9.02;;;;;;;6.88;72.07;102361.59;5007009;28;20042;-46
2021/04/04 08:00:31;;;;;;;24.70;10.65;;;;;;;6.94;71.91;102351.34;5013832;28;20115;-47
2021/04/04 08:03:00;;;;;;;20.75;9.88;;;;;;;7.00;71.71;102341.97;5018370;28;20069;-47
2021/04/04 08:05:31;;;;;;;22.33;9.57;;;;;;;7.06;71.68;102327.09;5019115;28;20518;-50
2021/04/04 08:08:05;;;;;;;22.80;9.60;;;;;;;7.12;71.87;102329.50;5010377;28;20046;-45
2021/04/04 08:10:35;;;;;;;22.00;9.73;;;;;;;7.18;71.67;102335.81;4994462;28;20082;-46
2021/04/04 08:13:15;;;;;;;22.48;9.05;;;;;;;7.27;71.80;102334.13;4994816;28;20053;-47
2021/04/04 08:16:08;;;;;;;18.85;8.43;;;;;;;7.36;71.84;102337.91;4994278;28;20106;-49
2021/04/04 08:18:36;;;;;;;16.77;8.05;;;;;;;7.47;71.49;102347.75;5000991;28;20073;-47
2021/04/04 08:21:08;;;;;;;18.17;8.65;;;;;;;7.56;71.85;102348.00;5019928;28;20048;-47
2021/04/04 08:24:08;;;;;;;18.35;9.95;;;;;;;7.67;71.65;102338.53;5007197;28;20077;-46
2021/04/04 08:27:01;;;;;;;18.33;8.85;;;;;;;7.79;71.80;102328.78;5017792;28;20096;-46
2021/04/04 08:29:32;;;;;;;21.55;11.70;;;;;;;7.88;71.89;102329.84;5011010;28;20042;-46
2021/04/04 08:32:04;;;;;;;17.45;9.15;;;;;;;8.00;71.87;102326.69;5013689;28;20487;-46
2021/04/04 08:34:40;;;;;;;15.40;9.05;;;;;;;8.11;72.03;102308.94;5029053;28;20073;-46
2021/04/04 08:37:17;;;;;;;19.75;9.18;;;;;;;8.25;72.16;102311.84;5006631;28;20045;-51
2021/04/04 08:39:53;;;;;;;23.90;10.18;;;;;;;8.42;72.36;102312.22;5025804;28;20447;-46
2021/04/04 08:42:20;;;;;;;18.95;9.05;;;;;;;8.60;73.02;102335.50;5030318;28;20505;-48
2021/04/04 08:45:12;;;;;;;19.33;8.63;;;;;;;8.76;72.25;102335.03;5011174;28;20077;-46
2021/04/04 08:47:41;;;;;;;;;;;;;;;8.95;70.91;102330.34;5015938;28;20068;-48
2021/04/04 08:50:12;;;;;;;16.50;8.55;;;;;;;9.26;74.69;102327.19;5027976;28;20363;-46
2021/04/04 08:53:10;;;;;;;24.60;14.85;;;;;;;9.64;72.79;102328.81;5026643;28;20084;-49
2021/04/04 08:55:38;;;;;;;18.35;9.00;;;;;;;10.12;75.27;102324.72;5015917;28;20061;-48
2021/04/04 08:58:07;;;;;;;21.63;8.25;;;;;;;10.72;74.60;102328.28;5012827;28;20054;-54
2021/04/04 09:00:36;;;;;;;19.55;9.10;;;;;;;11.38;73.50;102327.72;5013166;28;20046;-48
2021/04/04 09:03:10;;;;;;;18.00;8.38;;;;;;;12.13;70.39;102330.59;5009059;28;20056;-48
2021/04/04 09:05:37;;;;;;;15.88;8.43;;;;;;;12.96;68.95;102334.41;5001064;28;20141;-47
2021/04/04 09:08:05;;;;;;;19.55;8.35;;;;;;;13.63;65.94;102323.75;5013450;28;20127;-50
2021/04/04 09:10:34;;;;;;;16.67;9.02;;;;;;;14.20;63.85;102332.69;5010604;28;20046;-53
2021/04/04 09:13:07;;;;;;;16.80;7.93;;;;;;;14.68;59.39;102343.53;5001698;28;20047;-54
2021/04/04 09:15:49;;;;;;;20.10;9.02;;;;;;;15.24;58.53;102345.88;5005484;28;20411;-48
2021/04/04 09:18:17;;;;;;;17.17;8.65;;;;;;;15.51;58.80;102341.78;5019633;28;20041;-51
2021/04/04 09:20:45;;;;;;;20.55;9.98;;;;;;;15.89;57.77;102338.81;5026522;28;20521;-50
2021/04/04 09:23:14;;;;;;;13.68;9.32;;;;;;;16.29;56.56;102328.72;5008765;28;20064;-52
2021/04/04 09:25:50;;;;;;;13.70;7.63;;;;;;;16.66;53.00;102328.81;5020631;28;20132;-46
2021/04/04 09:28:18;;;;;;;12.80;7.93;;;;;;;17.02;54.38;102315.63;5022135;28;20395;-46
2021/04/04 09:30:46;;;;;;;14.68;9.02;;;;;;;16.95;52.69;102300.59;5006927;28;20092;-49
2021/04/04 09:33:17;;;;;;;16.20;7.57;;;;;;;17.00;52.25;102306.78;5014646;28;20044;-51
2021/04/04 09:35:46;;;;;;;;;;;;;;;17.05;48.16;102302.94;5014719;28;20152;-49
2021/04/04 09:38:15;;;;;;;14.13;7.28;;;;;;;16.98;51.82;102297.94;5024326;28;19968;-48
2021/04/04 09:40:43;;;;;;;11.75;7.57;;;;;;;17.13;51.20;102309.59;5000583;28;20096;-48
2021/04/04 09:43:12;;;;;;;15.07;7.88;;;;;;;17.22;50.21;102299.88;5018118;28;20128;-48
2021/04/04 09:45:39;;;;;;;16.80;8.68;;;;;;;17.47;50.00;102284.63;5020081;28;20084;-49
2021/04/04 09:48:23;;;;;;;14.52;8.20;;;;;;;17.54;47.59;102276.50;5021627;28;20076;-54
2021/04/04 09:51:03;;;;;;;17.10;8.15;;;;;;;17.59;49.07;102259.44;5013931;28;20037;-46
2021/04/04 09:53:47;;;;;;;11.77;7.95;;;;;;;17.46;47.84;102241.03;5008904;28;20133;-50
2021/04/04 09:56:19;;;;;;;14.98;7.45;;;;;;;17.58;48.43;102237.38;5010751;28;20041;-49
2021/04/04 09:58:48;;;;;;;14.95;7.80;;;;;;;17.85;48.37;102241.34;5013138;28;20041;-47
2021/04/04 10:01:25;;;;;;;17.00;8.20;;;;;;;17.99;46.91;102241.72;5012621;28;20058;-50
2021/04/04 10:03:59;;;;;;;13.70;7.63;;;;;;;18.09;47.68;102230.81;5016828;28;20127;-50
2021/04/04 10:06:27;;;;;;;12.23;7.78;;;;;;;18.08;47.28;102231.19;4997441;28;20123;-46
2021/04/04 10:09:11;;;;;;;13.93;7.85;;;;;;;18.10;46.64;102214.81;5010971;28;20049;-49
2021/04/04 10:11:38;;;;;;;18.60;9.35;;;;;;;18.12;47.17;102201.25;5017715;28;20045;-47
2021/04/04 10:14:09;;;;;;;14.02;7.30;;;;;;;18.28;46.71;102193.66;5002528;28;20123;-49
2021/04/04 10:16:36;;;;;;;13.25;8.00;;;;;;;18.38;46.29;102198.69;5024104;28;20471;-47
2021/04/04 10:19:08;;;;;;;11.60;6.55;;;;;;;18.54;45.75;102193.91;5019835;28;20724;-47
2021/04/04 10:21:40;;;;;;;12.75;6.68;;;;;;;18.70;45.64;102180.69;4998056;28;20394;-47
2021/04/04 10:24:42;;;;;;;12.20;7.43;;;;;;;18.47;44.99;102185.34;5007214;28;20550;-50
2021/04/04 10:27:26;;;;;;;14.70;7.43;;;;;;;18.43;45.36;102194.78;4945488;29;20086;-50
2021/04/04 10:30:17;;;;;;;9.93;6.57;;;;;;;18.45;45.33;102190.47;5003225;28;20058;-47
2021/04/04 10:32:45;;;;;;;15.40;7.85;;;;;;;18.51;46.00;102191.00;5005141;28;20042;-48
2021/04/04 10:35:27;;;;;;;13.45;7.53;;;;;;;18.45;45.35;102187.69;5019550;28;20842;-48
2021/04/04 10:38:04;;;;;;;;;;;;;;;18.16;45.19;102168.53;5015153;28;20049;-50
2021/04/04 10:40:51;;;;;;;12.93;6.40;;;;;;;17.97;45.67;102171.22;5013778;28;20351;-51
2021/04/04 10:43:20;;;;;;;13.85;7.53;;;;;;;17.99;45.76;102174.47;5015754;28;20060;-47
2021/04/04 10:45:58;;;;;;;11.55;7.07;;;;;;;17.81;45.90;102176.00;5020128;28;20080;-51
2021/04/04 10:48:25;;;;;;;12.52;6.72;;;;;;;17.61;46.46;102187.06;5021662;28;20077;-50
2021/04/04 10:50:51;;;;;;;12.43;6.40;;;;;;;17.39;46.67;102187.63;5020475;28;20034;-53
2021/04/04 10:53:19;;;;;;;13.98;6.70;;;;;;;17.17;47.02;102193.78;5023172;28;20137;-46
2021/04/04 10:55:47;;;;;;;10.93;6.00;;;;;;;17.15;47.45;102179.31;5007666;28;20069;-54
2021/04/04 10:58:18;;;;;;;11.60;6.05;;;;;;;17.01;47.75;102167.69;5020607;28;20133;-50
2021/04/04 11:00:45;;;;;;;16.10;7.07;;;;;;;16.73;48.10;102166.84;5020329;28;20095;-47
2021/04/04 11:03:13;;;;;;;12.18;6.40;;;;;;;16.50;48.64;102174.06;5019267;28;20061;-52
2021/04/04 11:05:40;;;;;;;13.52;6.85;;;;;;;16.50;48.91;102172.06;5015191;28;20819;-49
2021/04/04 11:08:06;;;;;;;10.95;6.65;;;;;;;16.19;49.17;102167.09;5000035;28;20542;-46
2021/04/04 11:10:34;;;;;;;17.73;7.72;;;;;;;15.89;49.65;102151.69;4995805;28;20146;-51
2021/04/04 11:13:07;;;;;;;11.05;6.45;;;;;;;15.54;50.40;102158.84;5002029;28;20049;-51
2021/04/04 11:15:53;;;;;;;13.63;8.05;;;;;;;15.27;50.96;102153.81;5013313;28;20526;-53
2021/04/04 11:18:29;;;;;;;14.15;6.47;;;;;;;14.95;51.86;102156.25;4998503;28;20081;-47
2021/04/04 11:21:03;;;;;;;14.98;6.63;;;;;;;14.78;52.09;102164.72;5018475;28;20086;-54
2021/04/04 11:23:30;;;;;;;14.20;7.13;;;;;;;14.70;52.35;102165.59;5010350;28;20132;-50
2021/04/04 11:26:00;;;;;;;14.80;6.88;;;;;;;14.59;53.02;102169.94;5014979;28;20077;-50
2021/04/04 11:28:30;;;;;;;14.55;8.63;;;;;;;14.49;53.10;102159.19;5004853;28;20041;-50
2021/04/04 11:31:00;;;;;;;13.32;6.97;;;;;;;14.40;53.92;102166.78;5020197;28;20097;-50
2021/04/04 11:33:31;;;;;;;12.52;5.55;;;;;;;14.12;53.93;102171.16;5010341;28;20070;-51
2021/04/04 11:36:10;;;;;;;13.57;6.05;;;;;;;13.75;54.67;102162.44;5011971;28;20100;-50
2021/04/04 11:39:00;;;;;;;14.02;6.03;;;;;;;13.66;54.66;102177.56;5005507;28;20072;-53
2021/04/04 11:41:28;;;;;;;13.25;7.05;;;;;;;13.78;54.93;102160.97;5010468;28;20680;-46
2021/04/04 11:44:30;;;;;;;14.43;5.72;;;;;;;13.97;54.99;102166.97;4996762;28;20103;-46
2021/04/04 11:47:14;;;;;;;11.00;5.35;;;;;;;14.07;54.66;102165.78;4989695;28;20098;-50